Terminal Aerodrome Forecast
Issued by NWS Wilmington, OH

Current Version | Previous Version | Graphics & Text | Print | Product List | Glossary On
Versions: 1 2 3 4 5 6 7 8 9 10 11 12 13 14 15 16 17 18 19 20 21 22 23 24 25
000
FTUS41 KILN 211400 AAB
TAFCMH
TAF AMD
KCMH 211458Z 2115/2212 25014G23KT P6SM BKN030 BKN100
     FM211600 26015G24KT P6SM SCT035
     FM211900 29017G27KT P6SM SCT040
     FM212100 29017G27KT P6SM BKN040
     FM220000 30012KT P6SM OVC020=

USA.gov is the U.S. government's official web portal to all federal, state and local government web resources and services.